| time (UTC) | temp C | wind direction | speed KPH | gust KPH | rain 1hr cm | rain 24hr cm | rain mn cm | humidity % | barometer mb |
| 20260906220218 | 32 | 213 | 9.7 | 17.7 | 0.00 | 0.00 | 0.00 | 29 | 1018.0 |
| 20260906220030 | 33 | 177 | 11.3 | 17.7 | 0.00 | 0.00 | 0.00 | 29 | 1016.2 |
| 20260906215718 | 31 | 190 | 4.8 | 14.5 | 0.00 | 0.00 | 0.00 | 31 | 1018.1 |
| 20260906215217 | 31 | 196 | 4.8 | 12.9 | 0.00 | 0.00 | 0.00 | 33 | 1018.0 |
| 20260906214717 | 31 | 139 | 4.8 | 16.1 | 0.00 | 0.00 | 0.00 | 33 | 1018.2 |
| 20260906214518 | 32 | 117 | 3.2 | 12.9 | 0.00 | 0.00 | 0.00 | 32 | 1016.4 |
| 20260906214217 | 31 | 169 | 4.8 | 16.1 | 0.00 | 0.00 | 0.00 | 33 | 1018.2 |
| 20260906213721 | 31 | 126 | 4.8 | 17.7 | 0.00 | 0.00 | 0.00 | 34 | 1018.4 |
| 20260906213717 | 31 | 130 | 6.4 | 17.7 | 0.00 | 0.00 | 0.00 | 34 | 1018.4 |
| 20260906213029 | 32 | 151 | 8.0 | 17.7 | 0.00 | 0.00 | 0.00 | 32 | 1016.7 |
| 20260906212717 | 31 | 165 | 4.8 | 19.3 | 0.00 | 0.00 | 0.00 | 33 | 1018.4 |
| 20260906212217 | 31 | 196 | 9.7 | 19.3 | 0.00 | 0.00 | 0.00 | 34 | 1018.6 |
| 20260906211717 | 31 | 121 | 9.7 | 19.3 | 0.00 | 0.00 | 0.00 | 33 | 1018.7 |
| 20260906211511 | 32 | 121 | 11.3 | 19.3 | 0.00 | 0.00 | 0.00 | 33 | 1016.9 |
| 20260906211217 | 31 | 88 | 9.7 | 19.3 | 0.00 | 0.00 | 0.00 | 33 | 1018.7 |
| 20260906210717 | 31 | 87 | 6.4 | 17.7 | 0.00 | 0.00 | 0.00 | 34 | 1018.8 |
| 20260906210217 | 30 | 99 | 6.4 | 16.1 | 0.00 | 0.00 | 0.00 | 33 | 1018.9 |
| 20260906210017 | 32 | 96 | 3.2 | 16.1 | 0.00 | 0.00 | 0.00 | 32 | 1017.3 |
| 20260906205715 | 31 | 193 | 4.8 | 16.1 | 0.00 | 0.00 | 0.00 | 32 | 1019.0 |
| 20260906205215 | 31 | 99 | 6.4 | 16.1 | 0.00 | 0.00 | 0.00 | 31 | 1019.0 |
| 20260906204714 | 31 | 186 | 8.0 | 14.5 | 0.00 | 0.00 | 0.00 | 31 | 1019.0 |
| 20260906204512 | 32 | 180 | 4.8 | 14.5 | 0.00 | 0.00 | 0.00 | 30 | 1017.4 |
| 20260906204443 | 31 | 159 | 8.0 | 14.5 | 0.00 | 0.00 | 0.00 | 31 | 1019.0 |
| 20260906203713 | 30 | 96 | 9.7 | 14.5 | 0.00 | 0.00 | 0.00 | 31 | 1019.1 |
| 20260906203444 | 30 | 165 | 9.7 | 14.5 | 0.00 | 0.00 | 0.00 | 34 | 1019.1 |
| 20260906203014 | 31 | 84 | 8.0 | 14.5 | 0.00 | 0.00 | 0.00 | 32 | 1017.5 |
| 20260906202714 | 30 | 65 | 8.0 | 14.5 | 0.00 | 0.00 | 0.00 | 33 | 1019.3 |
| 20260906202212 | 30 | 186 | 6.4 | 14.5 | 0.00 | 0.00 | 0.00 | 34 | 1019.1 |
| 20260906201710 | 30 | 96 | 8.0 | 14.5 | 0.00 | 0.00 | 0.00 | 34 | 1019.3 |
| 20260906201528 | 31 | 68 | 8.0 | 14.5 | 0.00 | 0.00 | 0.00 | 32 | 1017.6 |
| 20260906201442 | 30 | 101 | 6.4 | 14.5 | 0.00 | 0.00 | 0.00 | 34 | 1019.3 |
| 20260906200710 | 30 | 98 | 8.0 | 16.1 | 0.00 | 0.00 | 0.00 | 35 | 1019.4 |
| 20260906200211 | 30 | 138 | 8.0 | 16.1 | 0.00 | 0.00 | 0.00 | 35 | 1019.4 |
| 20260906200027 | 31 | 107 | 8.0 | 16.1 | 0.00 | 0.00 | 0.00 | 34 | 1017.7 |
| 20260906195942 | 30 | 102 | 6.4 | 16.1 | 0.00 | 0.00 | 0.00 | 35 | 1019.4 |
| 20260906195211 | 30 | 95 | 4.8 | 16.1 | 0.00 | 0.00 | 0.00 | 36 | 1019.5 |
| 20260906194942 | 30 | 100 | 3.2 | 16.1 | 0.00 | 0.00 | 0.00 | 35 | 1019.6 |
| 20260906194527 | 31 | 57 | 1.6 | 11.3 | 0.00 | 0.00 | 0.00 | 34 | 1017.9 |
| 20260906194211 | 30 | 196 | 4.8 | 16.1 | 0.00 | 0.00 | 0.00 | 37 | 1019.7 |
| 20260906193711 | 29 | 189 | 4.8 | 16.1 | 0.00 | 0.00 | 0.00 | 38 | 1019.7 |
| 20260906193212 | 30 | 104 | 1.6 | 9.7 | 0.00 | 0.00 | 0.00 | 37 | 1019.7 |
| 20260906193020 | 31 | 78 | 1.6 | 6.4 | 0.00 | 0.00 | 0.00 | 37 | 1018.0 |
| 20260906192942 | 29 | 318 | 1.6 | 8.0 | 0.00 | 0.00 | 0.00 | 38 | 1019.7 |
| 20260906192208 | 28 | 327 | 4.8 | 8.0 | 0.00 | 0.00 | 0.00 | 38 | 1019.9 |
| 20260906191708 | 28 | 339 | 6.4 | 16.1 | 0.00 | 0.00 | 0.00 | 37 | 1020.0 |
| 20260906191526 | 29 | 78 | 6.4 | 14.5 | 0.00 | 0.00 | 0.00 | 36 | 1018.3 |
| 20260906191208 | 28 | 119 | 8.0 | 16.1 | 0.00 | 0.00 | 0.00 | 37 | 1020.1 |
| 20260906190709 | 28 | 59 | 6.4 | 16.1 | 0.00 | 0.00 | 0.00 | 38 | 1020.2 |
| 20260906190206 | 28 | 23 | 6.4 | 16.1 | 0.00 | 0.00 | 0.00 | 38 | 1020.2 |
| 20260906190016 | 29 | 51 | 6.4 | 16.1 | 0.00 | 0.00 | 0.00 | 38 | 1018.6 |
| 20260906185707 | 28 | 106 | 6.4 | 14.5 | 0.00 | 0.00 | 0.00 | 39 | 1020.4 |
| 20260906185206 | 28 | 78 | 6.4 | 14.5 | 0.00 | 0.00 | 0.00 | 39 | 1020.6 |
| 20260906184711 | 28 | 100 | 4.8 | 14.5 | 0.00 | 0.00 | 0.00 | 40 | 1020.8 |
| 20260906184707 | 28 | 68 | 4.8 | 14.5 | 0.00 | 0.00 | 0.00 | 40 | 1020.6 |
| 20260906184532 | 29 | 113 | 4.8 | 14.5 | 0.00 | 0.00 | 0.00 | 40 | 1018.9 |
| 20260906183706 | 27 | 182 | 6.4 | 11.3 | 0.00 | 0.00 | 0.00 | 41 | 1020.9 |
| 20260906183206 | 27 | 148 | 4.8 | 14.5 | 0.00 | 0.00 | 0.00 | 43 | 1021.0 |
| 20260906183017 | 28 | 82 | 4.8 | 11.3 | 0.00 | 0.00 | 0.00 | 42 | 1019.2 |
| 20260906182707 | 27 | 121 | 4.8 | 14.5 | 0.00 | 0.00 | 0.00 | 42 | 1021.1 |
| 20260906182206 | 27 | 143 | 6.4 | 14.5 | 0.00 | 0.00 | 0.00 | 43 | 1021.1 |
| 20260906181706 | 26 | 103 | 6.4 | 14.5 | 0.00 | 0.00 | 0.00 | 44 | 1021.3 |
| 20260906181532 | 28 | 59 | 6.4 | 14.5 | 0.00 | 0.00 | 0.00 | 44 | 1019.7 |
| 20260906181206 | 27 | 48 | 6.4 | 14.5 | 0.00 | 0.00 | 0.00 | 45 | 1021.4 |
| 20260906180707 | 27 | 20 | 4.8 | 12.9 | 0.00 | 0.00 | 0.00 | 45 | 1021.4 |
| 20260906180206 | 27 | 86 | 3.2 | 12.9 | 0.00 | 0.00 | 0.00 | 46 | 1021.4 |
| 20260906180051 | 27 | 17 | 3.2 | 9.7 | 0.00 | 0.00 | 0.00 | 46 | 1019.9 |
| 20260906175706 | 26 | 84 | 3.2 | 12.9 | 0.00 | 0.00 | 0.00 | 48 | 1021.6 |
| 20260906175207 | 26 | 23 | 4.8 | 17.7 | 0.00 | 0.00 | 0.00 | 48 | 1021.7 |
| 20260906174707 | 26 | 58 | 4.8 | 17.7 | 0.00 | 0.00 | 0.00 | 49 | 1021.8 |
| 20260906174519 | 27 | 105 | 6.4 | 17.7 | 0.00 | 0.00 | 0.00 | 49 | 1020.3 |
| 20260906174207 | 26 | 93 | 6.4 | 17.7 | 0.00 | 0.00 | 0.00 | 50 | 1022.0 |
| 20260906173711 | 25 | 70 | 4.8 | 16.1 | 0.00 | 0.00 | 0.00 | 50 | 1022.2 |
| 20260906173707 | 26 | 46 | 6.4 | 17.7 | 0.00 | 0.00 | 0.00 | 51 | 1022.1 |
| 20260906173004 | 26 | 70 | 3.2 | 14.5 | 0.00 | 0.00 | 0.00 | 48 | 1020.5 |
| 20260906172706 | 25 | 83 | 6.4 | 16.1 | 0.00 | 0.00 | 0.00 | 47 | 1022.2 |
| 20260906172206 | 25 | 107 | 6.4 | 16.1 | 0.00 | 0.00 | 0.00 | 49 | 1022.3 |
| 20260906171938 | 25 | 55 | 4.8 | 17.7 | 0.00 | 0.00 | 0.00 | 49 | 1022.4 |
| 20260906171508 | 26 | 43 | 3.2 | 17.7 | 0.00 | 0.00 | 0.00 | 47 | 1020.7 |
| 20260906171439 | 25 | 64 | 4.8 | 17.7 | 0.00 | 0.00 | 0.00 | 49 | 1022.4 |
| 20260906170706 | 25 | 138 | 6.4 | 14.5 | 0.00 | 0.00 | 0.00 | 49 | 1022.4 |
| 20260906170207 | 25 | 102 | 6.4 | 14.5 | 0.00 | 0.00 | 0.00 | 50 | 1022.5 |
| 20260906170008 | 26 | 87 | 8.0 | 14.5 | 0.00 | 0.00 | 0.00 | 51 | 1020.9 |
| 20260906165707 | 25 | 105 | 4.8 | 9.7 | 0.00 | 0.00 | 0.00 | 51 | 1022.5 |
| 20260906165207 | 25 | 65 | 3.2 | 9.7 | 0.00 | 0.00 | 0.00 | 51 | 1022.5 |
| 20260906164706 | 25 | 336 | 1.6 | 6.4 | 0.00 | 0.00 | 0.00 | 52 | 1022.5 |
| 20260906164507 | 26 | 327 | 0.0 | 6.4 | 0.00 | 0.00 | 0.00 | 53 | 1020.9 |
| 20260906164206 | 24 | 0 | 1.6 | 12.9 | 0.00 | 0.00 | 0.00 | 54 | 1022.7 |
| 20260906163707 | 23 | 80 | 3.2 | 12.9 | 0.00 | 0.00 | 0.00 | 56 | 1022.7 |
| 20260906163206 | 23 | 78 | 4.8 | 14.5 | 0.00 | 0.00 | 0.00 | 57 | 1022.5 |
| 20260906163019 | 25 | 360 | 3.2 | 12.9 | 0.00 | 0.00 | 0.00 | 56 | 1020.9 |
| 20260906162706 | 23 | 24 | 4.8 | 14.5 | 0.00 | 0.00 | 0.00 | 56 | 1022.5 |
| 20260906162206 | 23 | 329 | 6.4 | 14.5 | 0.00 | 0.00 | 0.00 | 57 | 1022.5 |
| 20260906161705 | 23 | 28 | 6.4 | 14.5 | 0.00 | 0.00 | 0.00 | 56 | 1022.5 |
| 20260906161519 | 23 | 44 | 8.0 | 14.5 | 0.00 | 0.00 | 0.00 | 57 | 1020.8 |
| 20260906161205 | 22 | 69 | 4.8 | 11.3 | 0.00 | 0.00 | 0.00 | 58 | 1022.7 |
| 20260906160705 | 22 | 32 | 4.8 | 11.3 | 0.00 | 0.00 | 0.00 | 60 | 1022.5 |
| 20260906160205 | 22 | 11 | 6.4 | 14.5 | 0.00 | 0.00 | 0.00 | 60 | 1022.5 |
| 20260906160014 | 23 | 44 | 4.8 | 11.3 | 0.00 | 0.00 | 0.00 | 61 | 1020.8 |
| 20260906155935 | 22 | 49 | 4.8 | 14.5 | 0.00 | 0.00 | 0.00 | 62 | 1022.7 |
| 20260906155434 | 21 | 5 | 6.4 | 14.5 | 0.00 | 0.00 | 0.00 | 62 | 1022.7 |
| 20260906154702 | 21 | 348 | 6.4 | 14.5 | 0.00 | 0.00 | 0.00 | 63 | 1022.7 |
| 20260906154515 | 22 | 48 | 6.4 | 14.5 | 0.00 | 0.00 | 0.00 | 63 | 1020.8 |
| 20260906154202 | 21 | 34 | 6.4 | 11.3 | 0.00 | 0.00 | 0.00 | 63 | 1022.7 |
| 20260906153702 | 21 | 53 | 4.8 | 11.3 | 0.00 | 0.00 | 0.00 | 65 | 1022.7 |
| 20260906153204 | 21 | 42 | 4.8 | 11.3 | 0.00 | 0.00 | 0.00 | 64 | 1022.8 |
| 20260906153008 | 22 | 24 | 1.6 | 11.3 | 0.00 | 0.00 | 0.00 | 64 | 1021.0 |
| 20260906152702 | 21 | 55 | 4.8 | 11.3 | 0.00 | 0.00 | 0.00 | 65 | 1022.8 |
| 20260906152202 | 21 | 27 | 3.2 | 11.3 | 0.00 | 0.00 | 0.00 | 66 | 1022.8 |
| 20260906151702 | 20 | 80 | 4.8 | 11.3 | 0.00 | 0.00 | 0.00 | 68 | 1022.8 |
| 20260906151519 | 21 | 62 | 1.6 | 11.3 | 0.00 | 0.00 | 0.00 | 68 | 1021.1 |
| 20260906151202 | 20 | 59 | 6.4 | 11.3 | 0.00 | 0.00 | 0.00 | 68 | 1022.8 |
| 20260906150931 | 20 | 73 | 6.4 | 12.9 | 0.00 | 0.00 | 0.00 | 69 | 1022.9 |
| 20260906150200 | 20 | 30 | 6.4 | 12.9 | 0.00 | 0.00 | 0.00 | 69 | 1022.9 |
| 20260906150031 | 21 | 69 | 6.4 | 11.3 | 0.00 | 0.00 | 0.00 | 69 | 1021.4 |
| 20260906145700 | 20 | 66 | 4.8 | 12.9 | 0.00 | 0.00 | 0.00 | 70 | 1023.0 |
| 20260906145158 | 19 | 59 | 6.4 | 12.9 | 0.00 | 0.00 | 0.00 | 70 | 1022.9 |
| 20260906144927 | 20 | 58 | 6.4 | 16.1 | 0.00 | 0.00 | 0.00 | 69 | 1023.0 |
| 20260906144514 | 21 | 92 | 4.8 | 11.3 | 0.00 | 0.00 | 0.00 | 69 | 1021.4 |
| 20260906144156 | 20 | 67 | 6.4 | 16.1 | 0.00 | 0.00 | 0.00 | 70 | 1022.9 |
| 20260906143656 | 19 | 43 | 8.0 | 16.1 | 0.00 | 0.00 | 0.00 | 70 | 1022.8 |
| 20260906143152 | 19 | 68 | 8.0 | 16.1 | 0.00 | 0.00 | 0.00 | 70 | 1022.8 |
| 20260906143027 | 20 | 68 | 4.8 | 16.1 | 0.00 | 0.00 | 0.00 | 70 | 1021.2 |
| 20260906142656 | 19 | 19 | 8.0 | 14.5 | 0.00 | 0.00 | 0.00 | 72 | 1022.7 |
| 20260906142652 | 19 | 26 | 8.0 | 14.5 | 0.00 | 0.00 | 0.00 | 71 | 1022.7 |
| 20260906141650 | 19 | 41 | 8.0 | 14.5 | 0.00 | 0.00 | 0.00 | 72 | 1022.7 |
| 20260906141515 | 20 | 40 | 6.4 | 11.3 | 0.00 | 0.00 | 0.00 | 71 | 1021.2 |
| 20260906141150 | 19 | 57 | 8.0 | 14.5 | 0.00 | 0.00 | 0.00 | 72 | 1022.7 |
| 20260906140650 | 18 | 36 | 8.0 | 14.5 | 0.00 | 0.00 | 0.00 | 72 | 1022.8 |
| 20260906140150 | 18 | 36 | 6.4 | 12.9 | 0.00 | 0.00 | 0.00 | 74 | 1022.9 |
| 20260906140016 | 20 | 5 | 4.8 | 12.9 | 0.00 | 0.00 | 0.00 | 73 | 1021.3 |
| 20260906135650 | 18 | 32 | 3.2 | 12.9 | 0.00 | 0.00 | 0.00 | 76 | 1022.9 |
| 20260906135150 | 18 | 30 | 3.2 | 8.0 | 0.00 | 0.00 | 0.00 | 78 | 1022.8 |
| 20260906134650 | 18 | 327 | 4.8 | 8.0 | 0.00 | 0.00 | 0.00 | 79 | 1022.8 |
| 20260906134525 | 19 | 319 | 3.2 | 8.0 | 0.00 | 0.00 | 0.00 | 79 | 1021.1 |
| 20260906134150 | 17 | 348 | 4.8 | 8.0 | 0.00 | 0.00 | 0.00 | 80 | 1022.8 |
| 20260906133651 | 17 | 345 | 1.6 | 8.0 | 0.00 | 0.00 | 0.00 | 82 | 1022.8 |
| 20260906133150 | 17 | 344 | 0.0 | 6.4 | 0.00 | 0.00 | 0.00 | 82 | 1022.9 |
| 20260906133031 | 18 | 343 | 0.0 | 1.6 | 0.00 | 0.00 | 0.00 | 81 | 1021.2 |
| 20260906132648 | 17 | 338 | 0.0 | 0.0 | 0.00 | 0.00 | 0.00 | 82 | 1022.8 |
| 20260906132148 | 17 | 290 | 0.0 | 0.0 | 0.00 | 0.00 | 0.00 | 82 | 1022.7 |
| 20260906131919 | 17 | 290 | 0.0 | 0.0 | 0.00 | 0.00 | 0.00 | 83 | 1022.7 |
| 20260906131531 | 18 | 290 | 0.0 | 0.0 | 0.00 | 0.00 | 0.00 | 82 | 1021.2 |
| 20260906131149 | 17 | 290 | 0.0 | 0.0 | 0.00 | 0.00 | 0.00 | 82 | 1022.5 |
| 20260906130648 | 17 | 290 | 0.0 | 0.0 | 0.00 | 0.00 | 0.00 | 83 | 1022.7 |
| 20260906130420 | 17 | 290 | 0.0 | 0.0 | 0.00 | 0.00 | 0.00 | 83 | 1022.8 |
| 20260906130018 | 18 | 352 | 0.0 | 0.0 | 0.00 | 0.00 | 0.00 | 82 | 1021.0 |
| 20260906125648 | 17 | 339 | 0.0 | 0.0 | 0.00 | 0.00 | 0.00 | 83 | 1022.7 |
| 20260906125148 | 17 | 339 | 0.0 | 8.0 | 0.00 | 0.00 | 0.00 | 83 | 1022.5 |
| 20260906124653 | 17 | 339 | 0.0 | 8.0 | 0.00 | 0.00 | 0.00 | 82 | 1022.5 |
| 20260906124649 | 17 | 339 | 0.0 | 8.0 | 0.00 | 0.00 | 0.00 | 82 | 1022.4 |
| 20260906124509 | 18 | 339 | 0.0 | 1.6 | 0.00 | 0.00 | 0.00 | 82 | 1020.8 |
| 20260906123646 | 17 | 339 | 0.0 | 8.0 | 0.00 | 0.00 | 0.00 | 81 | 1022.4 |
| 20260906123146 | 17 | 340 | 0.0 | 6.4 | 0.00 | 0.00 | 0.00 | 80 | 1022.4 |
| 20260906123013 | 18 | 340 | 0.0 | 3.2 | 0.00 | 0.00 | 0.00 | 79 | 1020.7 |
| 20260906122646 | 17 | 340 | 1.6 | 6.4 | 0.00 | 0.00 | 0.00 | 80 | 1022.4 |
| 20260906122146 | 17 | 340 | 1.6 | 6.4 | 0.00 | 0.00 | 0.00 | 79 | 1022.4 |
| 20260906121646 | 17 | 23 | 1.6 | 11.3 | 0.00 | 0.00 | 0.00 | 79 | 1022.4 |
| 20260906121532 | 18 | 23 | 1.6 | 8.0 | 0.00 | 0.00 | 0.00 | 78 | 1020.7 |
| 20260906121146 | 17 | 38 | 1.6 | 11.3 | 0.00 | 0.00 | 0.00 | 78 | 1022.4 |
| 20260906120646 | 17 | 25 | 4.8 | 11.3 | 0.00 | 0.00 | 0.00 | 77 | 1022.3 |
| 20260906120147 | 17 | 342 | 4.8 | 11.3 | 0.00 | 0.00 | 0.00 | 77 | 1022.2 |
| 20260906120018 | 18 | 28 | 4.8 | 11.3 | 0.00 | 0.00 | 0.00 | 76 | 1020.5 |
| 20260906115644 | 17 | 17 | 3.2 | 9.7 | 0.00 | 0.00 | 0.00 | 76 | 1022.2 |
| 20260906115144 | 17 | 19 | 1.6 | 6.4 | 0.00 | 0.00 | 0.00 | 76 | 1022.2 |
| 20260906114915 | 17 | 22 | 1.6 | 6.4 | 0.00 | 0.00 | 0.00 | 76 | 1022.3 |
| 20260906114528 | 18 | 13 | 1.6 | 6.4 | 0.00 | 0.00 | 0.00 | 75 | 1020.6 |
| 20260906114143 | 17 | 9 | 1.6 | 6.4 | 0.00 | 0.00 | 0.00 | 75 | 1022.3 |
| 20260906113644 | 18 | 28 | 1.6 | 6.4 | 0.00 | 0.00 | 0.00 | 75 | 1022.4 |
| 20260906113145 | 18 | 11 | 1.6 | 4.8 | 0.00 | 0.00 | 0.00 | 75 | 1022.4 |
| 20260906113027 | 19 | 15 | 0.0 | 6.4 | 0.00 | 0.00 | 0.00 | 74 | 1020.7 |
| 20260906112642 | 18 | 15 | 1.6 | 6.4 | 0.00 | 0.00 | 0.00 | 74 | 1022.3 |
| 20260906112145 | 18 | 19 | 1.6 | 9.7 | 0.00 | 0.00 | 0.00 | 74 | 1022.2 |
| 20260906112141 | 18 | 351 | 3.2 | 9.7 | 0.00 | 0.00 | 0.00 | 74 | 1022.2 |
| 20260906111521 | 19 | 348 | 0.0 | 9.7 | 0.00 | 0.00 | 0.00 | 73 | 1020.6 |
| 20260906111139 | 18 | 0 | 4.8 | 9.7 | 0.00 | 0.00 | 0.00 | 74 | 1022.2 |
| 20260906110640 | 18 | 327 | 4.8 | 9.7 | 0.00 | 0.00 | 0.00 | 73 | 1022.2 |
| 20260906110140 | 18 | 342 | 4.8 | 9.7 | 0.00 | 0.00 | 0.00 | 73 | 1022.2 |
| 20260906110014 | 19 | 348 | 4.8 | 9.7 | 0.00 | 0.00 | 0.00 | 73 | 1020.6 |
| 20260906105640 | 18 | 343 | 4.8 | 9.7 | 0.00 | 0.00 | 0.00 | 73 | 1022.2 |
| 20260906105137 | 18 | 347 | 3.2 | 9.7 | 0.00 | 0.00 | 0.00 | 73 | 1022.2 |
| 20260906104640 | 18 | 0 | 1.6 | 6.4 | 0.00 | 0.00 | 0.00 | 72 | 1022.1 |
| 20260906104636 | 18 | 339 | 4.8 | 8.0 | 0.00 | 0.00 | 0.00 | 72 | 1022.2 |
| 20260906104524 | 19 | 338 | 3.2 | 8.0 | 0.00 | 0.00 | 0.00 | 71 | 1020.6 |
| 20260906103636 | 18 | 0 | 0.0 | 4.8 | 0.00 | 0.00 | 0.00 | 71 | 1022.3 |
| 20260906103136 | 18 | 0 | 0.0 | 1.6 | 0.00 | 0.00 | 0.00 | 70 | 1022.2 |
| 20260906103024 | 19 | 346 | 0.0 | 0.0 | 0.00 | 0.00 | 0.00 | 69 | 1020.6 |
| 20260906102908 | 18 | 346 | 0.0 | 0.0 | 0.00 | 0.00 | 0.00 | 68 | 1022.1 |
| 20260906102136 | 18 | 346 | 0.0 | 0.0 | 0.00 | 0.00 | 0.00 | 68 | 1022.2 |
| 20260906101636 | 18 | 30 | 0.0 | 0.0 | 0.00 | 0.00 | 0.00 | 67 | 1022.2 |
| 20260906101527 | 19 | 30 | 0.0 | 0.0 | 0.00 | 0.00 | 0.00 | 66 | 1020.6 |
| 20260906101135 | 18 | 30 | 0.0 | 0.0 | 0.00 | 0.00 | 0.00 | 66 | 1022.2 |
| 20260906100636 | 18 | 30 | 0.0 | 0.0 | 0.00 | 0.00 | 0.00 | 65 | 1022.3 |
| 20260906100136 | 18 | 30 | 0.0 | 0.0 | 0.00 | 0.00 | 0.00 | 64 | 1022.1 |
| 20260906100018 | 20 | 30 | 0.0 | 0.0 | 0.00 | 0.00 | 0.00 | 63 | 1020.6 |
| 20260906095906 | 18 | 30 | 0.0 | 6.4 | 0.00 | 0.00 | 0.00 | 63 | 1022.2 |
| 20260906095408 | 18 | 30 | 0.0 | 6.4 | 0.00 | 0.00 | 0.00 | 63 | 1022.1 |
| 20260906094636 | 18 | 30 | 1.6 | 6.4 | 0.00 | 0.00 | 0.00 | 63 | 1022.0 |
| 20260906094535 | 20 | 30 | 0.0 | 8.0 | 0.00 | 0.00 | 0.00 | 62 | 1020.6 |
| 20260906093633 | 18 | 26 | 1.6 | 8.0 | 0.00 | 0.00 | 0.00 | 64 | 1021.7 |
| 20260906093138 | 18 | 341 | 1.6 | 8.0 | 0.00 | 0.00 | 0.00 | 63 | 1021.6 |
| 20260906093134 | 18 | 341 | 1.6 | 6.4 | 0.00 | 0.00 | 0.00 | 63 | 1021.6 |
| 20260906093032 | 20 | 341 | 0.0 | 6.4 | 0.00 | 0.00 | 0.00 | 63 | 1020.1 |
| 20260906092134 | 18 | 342 | 1.6 | 8.0 | 0.00 | 0.00 | 0.00 | 62 | 1021.7 |
| 20260906091633 | 18 | 339 | 3.2 | 9.7 | 0.00 | 0.00 | 0.00 | 61 | 1021.7 |
| 20260906091527 | 20 | 339 | 0.0 | 9.7 | 0.00 | 0.00 | 0.00 | 61 | 1020.0 |
| 20260906091134 | 19 | 340 | 4.8 | 9.7 | 0.00 | 0.00 | 0.00 | 61 | 1021.5 |
| 20260906090632 | 19 | 351 | 3.2 | 8.0 | 0.00 | 0.00 | 0.00 | 61 | 1021.3 |
| 20260906090132 | 19 | 22 | 3.2 | 6.4 | 0.00 | 0.00 | 0.00 | 59 | 1021.3 |
| 20260906090031 | 20 | 22 | 3.2 | 6.4 | 0.00 | 0.00 | 0.00 | 58 | 1019.7 |
| 20260906085632 | 19 | 20 | 1.6 | 4.8 | 0.00 | 0.00 | 0.00 | 59 | 1021.5 |
| 20260906085135 | 19 | 17 | 0.0 | 9.7 | 0.00 | 0.00 | 0.00 | 57 | 1021.4 |
| 20260906085131 | 19 | 17 | 0.0 | 3.2 | 0.00 | 0.00 | 0.00 | 58 | 1021.4 |
| 20260906084523 | 20 | 17 | 0.0 | 0.0 | 0.00 | 0.00 | 0.00 | 56 | 1019.8 |
| 20260906084403 | 19 | 17 | 1.6 | 9.7 | 0.00 | 0.00 | 0.00 | 56 | 1021.4 |
| 20260906083632 | 20 | 17 | 3.2 | 9.7 | 0.00 | 0.00 | 0.00 | 56 | 1021.4 |
| 20260906083132 | 20 | 5 | 6.4 | 12.9 | 0.00 | 0.00 | 0.00 | 54 | 1021.4 |
| 20260906083035 | 21 | 30 | 4.8 | 12.9 | 0.00 | 0.00 | 0.00 | 54 | 1019.8 |
| 20260906082631 | 20 | 41 | 6.4 | 12.9 | 0.00 | 0.00 | 0.00 | 53 | 1021.4 |
| 20260906082132 | 20 | 47 | 6.4 | 12.9 | 0.00 | 0.00 | 0.00 | 53 | 1021.4 |
| 20260906081632 | 20 | 28 | 6.4 | 12.9 | 0.00 | 0.00 | 0.00 | 53 | 1021.4 |
| 20260906081524 | 21 | 26 | 6.4 | 12.9 | 0.00 | 0.00 | 0.00 | 52 | 1019.7 |
| 20260906081132 | 20 | 0 | 4.8 | 12.9 | 0.00 | 0.00 | 0.00 | 52 | 1021.3 |
| 20260906080631 | 20 | 13 | 6.4 | 12.9 | 0.00 | 0.00 | 0.00 | 52 | 1021.5 |
| 20260906080132 | 20 | 32 | 6.4 | 12.9 | 0.00 | 0.00 | 0.00 | 52 | 1021.6 |
| 20260906080029 | 21 | 22 | 6.4 | 12.9 | 0.00 | 0.00 | 0.00 | 51 | 1019.9 |
| 20260906075632 | 20 | 31 | 4.8 | 11.3 | 0.00 | 0.00 | 0.00 | 50 | 1021.5 |
| 20260906075132 | 20 | 346 | 3.2 | 9.7 | 0.00 | 0.00 | 0.00 | 50 | 1021.6 |
| 20260906074631 | 20 | 355 | 3.2 | 9.7 | 0.00 | 0.00 | 0.00 | 50 | 1021.6 |
| 20260906074533 | 21 | 31 | 0.0 | 6.4 | 0.00 | 0.00 | 0.00 | 50 | 1019.9 |
| 20260906074132 | 20 | 31 | 4.8 | 11.3 | 0.00 | 0.00 | 0.00 | 49 | 1021.6 |
| 20260906073632 | 20 | 36 | 6.4 | 11.3 | 0.00 | 0.00 | 0.00 | 48 | 1021.6 |
| 20260906073132 | 20 | 355 | 4.8 | 9.7 | 0.00 | 0.00 | 0.00 | 50 | 1021.5 |
| 20260906073039 | 21 | 350 | 4.8 | 9.7 | 0.00 | 0.00 | 0.00 | 49 | 1019.9 |
| 20260906072632 | 20 | 22 | 4.8 | 9.7 | 0.00 | 0.00 | 0.00 | 50 | 1021.5 |
| 20260906072132 | 20 | 22 | 6.4 | 11.3 | 0.00 | 0.00 | 0.00 | 50 | 1021.5 |
| 20260906071632 | 20 | 35 | 4.8 | 11.3 | 0.00 | 0.00 | 0.00 | 50 | 1021.5 |
| 20260906071527 | 21 | 47 | 3.2 | 11.3 | 0.00 | 0.00 | 0.00 | 49 | 1019.9 |
| 20260906071132 | 20 | 46 | 6.4 | 11.3 | 0.00 | 0.00 | 0.00 | 49 | 1021.5 |
| 20260906070631 | 21 | 34 | 6.4 | 11.3 | 0.00 | 0.00 | 0.00 | 47 | 1021.4 |
| 20260906070402 | 21 | 32 | 4.8 | 9.7 | 0.00 | 0.00 | 0.00 | 47 | 1021.4 |
| 20260906070032 | 22 | 49 | 6.4 | 9.7 | 0.00 | 0.00 | 0.00 | 47 | 1019.8 |
| 20260906065632 | 21 | 41 | 4.8 | 9.7 | 0.00 | 0.00 | 0.00 | 49 | 1021.5 |
| 20260906065131 | 21 | 345 | 3.2 | 9.7 | 0.00 | 0.00 | 0.00 | 48 | 1021.4 |
| 20260906064632 | 21 | 350 | 3.2 | 8.0 | 0.00 | 0.00 | 0.00 | 50 | 1021.4 |
| 20260906064528 | 22 | 346 | 0.0 | 8.0 | 0.00 | 0.00 | 0.00 | 50 | 1019.8 |
| 20260906064402 | 21 | 346 | 3.2 | 8.0 | 0.00 | 0.00 | 0.00 | 50 | 1021.4 |
| 20260906063632 | 21 | 5 | 1.6 | 6.4 | 0.00 | 0.00 | 0.00 | 49 | 1021.5 |
| 20260906063130 | 21 | 266 | 0.0 | 0.0 | 0.00 | 0.00 | 0.00 | 47 | 1021.6 |
| 20260906063024 | 22 | 266 | 0.0 | 0.0 | 0.00 | 0.00 | 0.00 | 46 | 1020.2 |
| 20260906062901 | 21 | 266 | 0.0 | 0.0 | 0.00 | 0.00 | 0.00 | 46 | 1021.8 |
| 20260906062130 | 21 | 266 | 0.0 | 0.0 | 0.00 | 0.00 | 0.00 | 45 | 1021.8 |
| 20260906061629 | 21 | 266 | 0.0 | 6.4 | 0.00 | 0.00 | 0.00 | 46 | 1021.8 |
| 20260906061536 | 22 | 266 | 0.0 | 0.0 | 0.00 | 0.00 | 0.00 | 46 | 1020.3 |
| 20260906061129 | 21 | 266 | 0.0 | 6.4 | 0.00 | 0.00 | 0.00 | 48 | 1021.7 |
| 20260906060628 | 21 | 266 | 0.0 | 6.4 | 0.00 | 0.00 | 0.00 | 47 | 1021.7 |
| 20260906060130 | 21 | 264 | 1.6 | 6.4 | 0.00 | 0.00 | 0.00 | 46 | 1021.8 |
| 20260906060126 | 21 | 266 | 1.6 | 6.4 | 0.00 | 0.00 | 0.00 | 45 | 1021.7 |
| 20260906060032 | 22 | 280 | 0.0 | 6.4 | 0.00 | 0.00 | 0.00 | 45 | 1020.3 |
| 20260906055126 | 21 | 267 | 1.6 | 6.4 | 0.00 | 0.00 | 0.00 | 45 | 1021.8 |
| 20260906054625 | 21 | 254 | 1.6 | 6.4 | 0.00 | 0.00 | 0.00 | 45 | 1021.7 |
| 20260906054507 | 22 | 272 | 1.6 | 4.8 | 0.00 | 0.00 | 0.00 | 45 | 1020.2 |
| 20260906054125 | 22 | 75 | 0.0 | 3.2 | 0.00 | 0.00 | 0.00 | 45 | 1021.8 |
| 20260906053626 | 22 | 85 | 0.0 | 3.2 | 0.00 | 0.00 | 0.00 | 44 | 1021.7 |
| 20260906053126 | 22 | 85 | 1.6 | 9.7 | 0.00 | 0.00 | 0.00 | 43 | 1021.7 |
| 20260906053006 | 23 | 85 | 0.0 | 6.4 | 0.00 | 0.00 | 0.00 | 43 | 1020.1 |
| 20260906052857 | 22 | 85 | 3.2 | 9.7 | 0.00 | 0.00 | 0.00 | 43 | 1021.5 |
| 20260906052125 | 22 | 85 | 4.8 | 14.5 | 0.00 | 0.00 | 0.00 | 43 | 1021.5 |
| 20260906051625 | 22 | 95 | 4.8 | 14.5 | 0.00 | 0.00 | 0.00 | 42 | 1021.5 |
| 20260906051507 | 23 | 101 | 3.2 | 14.5 | 0.00 | 0.00 | 0.00 | 42 | 1019.9 |
| 20260906051125 | 22 | 124 | 6.4 | 14.5 | 0.00 | 0.00 | 0.00 | 42 | 1021.6 |
| 20260906050858 | 22 | 119 | 4.8 | 14.5 | 0.00 | 0.00 | 0.00 | 43 | 1021.5 |
| 20260906050126 | 22 | 120 | 1.6 | 8.0 | 0.00 | 0.00 | 0.00 | 42 | 1021.1 |
| 20260906050009 | 23 | 256 | 0.0 | 8.0 | 0.00 | 0.00 | 0.00 | 41 | 1019.6 |
| 20260906045625 | 22 | 263 | 4.8 | 11.3 | 0.00 | 0.00 | 0.00 | 43 | 1021.1 |
| 20260906045125 | 22 | 257 | 4.8 | 11.3 | 0.00 | 0.00 | 0.00 | 44 | 1021.1 |
| 20260906044625 | 23 | 225 | 3.2 | 11.3 | 0.00 | 0.00 | 0.00 | 42 | 1021.1 |
| 20260906044517 | 24 | 165 | 4.8 | 8.0 | 0.00 | 0.00 | 0.00 | 41 | 1019.5 |
| 20260906044126 | 23 | 143 | 1.6 | 11.3 | 0.00 | 0.00 | 0.00 | 42 | 1021.0 |
| 20260906043625 | 23 | 143 | 3.2 | 11.3 | 0.00 | 0.00 | 0.00 | 41 | 1020.9 |
| 20260906043356 | 23 | 131 | 4.8 | 11.3 | 0.00 | 0.00 | 0.00 | 39 | 1020.8 |
| 20260906043004 | 24 | 103 | 3.2 | 11.3 | 0.00 | 0.00 | 0.00 | 37 | 1018.9 |
| 20260906042626 | 23 | 91 | 3.2 | 11.3 | 0.00 | 0.00 | 0.00 | 38 | 1020.4 |
| 20260906042125 | 23 | 89 | 1.6 | 11.3 | 0.00 | 0.00 | 0.00 | 38 | 1020.6 |
| 20260906041856 | 23 | 317 | 0.0 | 8.0 | 0.00 | 0.00 | 0.00 | 39 | 1020.3 |
| 20260906041512 | 25 | 317 | 0.0 | 8.0 | 0.00 | 0.00 | 0.00 | 38 | 1018.7 |
| 20260906041126 | 24 | 317 | 3.2 | 17.7 | 0.00 | 0.00 | 0.00 | 38 | 1020.3 |
| 20260906040624 | 24 | 333 | 6.4 | 17.7 | 0.00 | 0.00 | 0.00 | 37 | 1020.2 |
| 20260906040123 | 24 | 5 | 8.0 | 17.7 | 0.00 | 0.00 | 0.00 | 36 | 1020.1 |
| 20260906040011 | 25 | 23 | 8.0 | 17.7 | 0.00 | 0.00 | 0.00 | 36 | 1018.5 |
| 20260906035623 | 24 | 0 | 8.0 | 17.7 | 0.00 | 0.00 | 0.00 | 35 | 1020.1 |
| 20260906035123 | 25 | 42 | 8.0 | 19.3 | 0.00 | 0.00 | 0.00 | 36 | 1020.1 |
| 20260906034623 | 25 | 348 | 6.4 | 19.3 | 0.00 | 0.00 | 0.00 | 36 | 1020.3 |
| 20260906034511 | 26 | 43 | 9.7 | 19.3 | 0.00 | 0.00 | 0.00 | 36 | 1018.7 |
| 20260906034124 | 25 | 340 | 4.8 | 17.7 | 0.00 | 0.00 | 0.00 | 37 | 1020.2 |
| 20260906033623 | 25 | 331 | 6.4 | 17.7 | 0.00 | 0.00 | 0.00 | 37 | 1020.3 |
| 20260906033354 | 25 | 338 | 8.0 | 17.7 | 0.00 | 0.00 | 0.00 | 38 | 1020.2 |
| 20260906033025 | 26 | 5 | 6.4 | 17.7 | 0.00 | 0.00 | 0.00 | 37 | 1018.6 |
| 20260906032853 | 25 | 350 | 9.7 | 17.7 | 0.00 | 0.00 | 0.00 | 37 | 1020.2 |
| 20260906032121 | 25 | 23 | 9.7 | 16.1 | 0.00 | 0.00 | 0.00 | 37 | 1020.2 |
| 20260906031621 | 25 | 32 | 9.7 | 17.7 | 0.00 | 0.00 | 0.00 | 36 | 1020.3 |
| 20260906031523 | 26 | 25 | 9.7 | 16.1 | 0.00 | 0.00 | 0.00 | 35 | 1018.5 |
| 20260906031121 | 25 | 53 | 9.7 | 17.7 | 0.00 | 0.00 | 0.00 | 35 | 1020.3 |
| 20260906030621 | 25 | 48 | 9.7 | 17.7 | 0.00 | 0.00 | 0.00 | 34 | 1020.2 |
| 20260906030121 | 26 | 66 | 8.0 | 17.7 | 0.00 | 0.00 | 0.00 | 33 | 1020.0 |
| 20260906030010 | 27 | 68 | 9.7 | 16.1 | 0.00 | 0.00 | 0.00 | 32 | 1018.3 |
| 20260906025622 | 26 | 52 | 6.4 | 14.5 | 0.00 | 0.00 | 0.00 | 32 | 1020.0 |
| 20260906025122 | 27 | 44 | 4.8 | 12.9 | 0.00 | 0.00 | 0.00 | 32 | 1019.7 |
| 20260906024621 | 27 | 355 | 4.8 | 12.9 | 0.00 | 0.00 | 0.00 | 32 | 1019.7 |
| 20260906024514 | 28 | 292 | 1.6 | 14.5 | 0.00 | 0.00 | 0.00 | 31 | 1017.8 |
| 20260906024121 | 27 | 17 | 4.8 | 14.5 | 0.00 | 0.00 | 0.00 | 32 | 1019.6 |
| 20260906023622 | 27 | 309 | 3.2 | 14.5 | 0.00 | 0.00 | 0.00 | 31 | 1019.5 |
| 20260906023353 | 27 | 355 | 3.2 | 14.5 | 0.00 | 0.00 | 0.00 | 32 | 1019.4 |
| 20260906023011 | 28 | 281 | 1.6 | 8.0 | 0.00 | 0.00 | 0.00 | 31 | 1017.7 |
| 20260906022631 | 27 | 320 | 3.2 | 14.5 | 0.00 | 0.00 | 0.00 | 32 | 1019.3 |
| 20260906022627 | 27 | 304 | 3.2 | 14.5 | 0.00 | 0.00 | 0.00 | 32 | 1019.4 |
| 20260906021622 | 27 | 296 | 3.2 | 14.5 | 0.00 | 0.00 | 0.00 | 31 | 1019.3 |
| 20260906021507 | 28 | 301 | 3.2 | 6.4 | 0.00 | 0.00 | 0.00 | 31 | 1017.6 |
| 20260906021121 | 27 | 287 | 1.6 | 6.4 | 0.00 | 0.00 | 0.00 | 33 | 1019.3 |
| 20260906020624 | 26 | 292 | 1.6 | 20.9 | 0.00 | 0.00 | 0.00 | 31 | 1019.3 |
| 20260906020119 | 26 | 325 | 4.8 | 20.9 | 0.00 | 0.00 | 0.00 | 30 | 1019.4 |
| 20260906020029 | 28 | 306 | 1.6 | 20.9 | 0.00 | 0.00 | 0.00 | 31 | 1017.7 |
| 20260906015619 | 27 | 312 | 8.0 | 20.9 | 0.00 | 0.00 | 0.00 | 31 | 1019.4 |
| 20260906015119 | 27 | 355 | 8.0 | 20.9 | 0.00 | 0.00 | 0.00 | 31 | 1019.4 |
| 20260906014620 | 27 | 20 | 4.8 | 11.3 | 0.00 | 0.00 | 0.00 | 29 | 1019.3 |
| 20260906014520 | 28 | 16 | 6.4 | 11.3 | 0.00 | 0.00 | 0.00 | 29 | 1017.6 |
| 20260906014121 | 27 | 56 | 1.6 | 8.0 | 0.00 | 0.00 | 0.00 | 30 | 1019.3 |
| 20260906013851 | 27 | 326 | 1.6 | 6.4 | 0.00 | 0.00 | 0.00 | 29 | 1019.0 |
| 20260906013119 | 28 | 315 | 3.2 | 6.4 | 0.00 | 0.00 | 0.00 | 29 | 1019.0 |
| 20260906013017 | 29 | 298 | 1.6 | 6.4 | 0.00 | 0.00 | 0.00 | 29 | 1017.3 |
| 20260906012848 | 28 | 350 | 3.2 | 14.5 | 0.00 | 0.00 | 0.00 | 29 | 1019.0 |
| 20260906012117 | 28 | 11 | 3.2 | 14.5 | 0.00 | 0.00 | 0.00 | 30 | 1019.1 |
| 20260906011618 | 28 | 283 | 3.2 | 14.5 | 0.00 | 0.00 | 0.00 | 29 | 1019.1 |
| 20260906011522 | 30 | 326 | 3.2 | 14.5 | 0.00 | 0.00 | 0.00 | 28 | 1017.4 |
| 20260906011117 | 28 | 321 | 4.8 | 14.5 | 0.00 | 0.00 | 0.00 | 28 | 1019.3 |
| 20260906010617 | 28 | 347 | 6.4 | 25.7 | 0.00 | 0.00 | 0.00 | 28 | 1019.1 |
| 20260906010118 | 28 | 304 | 6.4 | 25.7 | 0.00 | 0.00 | 0.00 | 27 | 1019.4 |
| 20260906010011 | 30 | 308 | 4.8 | 25.7 | 0.00 | 0.00 | 0.00 | 27 | 1017.6 |
| 20260906005616 | 29 | 302 | 6.4 | 25.7 | 0.00 | 0.00 | 0.00 | 28 | 1019.4 |
| 20260906005117 | 29 | 339 | 8.0 | 25.7 | 0.00 | 0.00 | 0.00 | 27 | 1019.4 |
| 20260906004848 | 29 | 355 | 8.0 | 19.3 | 0.00 | 0.00 | 0.00 | 27 | 1019.4 |
| 20260906004509 | 30 | 336 | 6.4 | 19.3 | 0.00 | 0.00 | 0.00 | 26 | 1017.6 |
| 20260906004117 | 29 | 0 | 8.0 | 19.3 | 0.00 | 0.00 | 0.00 | 26 | 1019.3 |
| 20260906003620 | 29 | 273 | 6.4 | 16.1 | 0.00 | 0.00 | 0.00 | 26 | 1019.4 |
| 20260906003115 | 30 | 325 | 6.4 | 16.1 | 0.00 | 0.00 | 0.00 | 27 | 1019.3 |
| 20260906003046 | 31 | 285 | 4.8 | 16.1 | 0.00 | 0.00 | 0.00 | 26 | 1017.7 |
| 20260906002615 | 30 | 302 | 6.4 | 16.1 | 0.00 | 0.00 | 0.00 | 27 | 1019.5 |
| 20260906002116 | 30 | 323 | 6.4 | 22.5 | 0.00 | 0.00 | 0.00 | 26 | 1019.5 |
| 20260906001615 | 30 | 332 | 6.4 | 22.5 | 0.00 | 0.00 | 0.00 | 26 | 1019.4 |
| 20260906001518 | 31 | 305 | 4.8 | 22.5 | 0.00 | 0.00 | 0.00 | 25 | 1017.7 |
| 20260906001115 | 31 | 345 | 6.4 | 22.5 | 0.00 | 0.00 | 0.00 | 24 | 1019.4 |
| 20260906000614 | 31 | 326 | 3.2 | 22.5 | 0.00 | 0.00 | 0.00 | 24 | 1019.3 |
| 20260906000117 | 31 | 310 | 3.2 | 14.5 | 0.00 | 0.00 | 0.00 | 23 | 1019.3 |
| 20260906000024 | 32 | 335 | 1.6 | 8.0 | 0.00 | 0.00 | 0.00 | 23 | 1017.5 |
| 20260905235615 | 31 | 322 | 3.2 | 14.5 | 0.00 | 0.00 | 0.00 | 22 | 1019.1 |
| 20260905235114 | 31 | 292 | 3.2 | 14.5 | 0.00 | 0.00 | 0.00 | 22 | 1019.1 |
| 20260905234844 | 32 | 298 | 4.8 | 14.5 | 0.00 | 0.00 | 0.00 | 21 | 1019.1 |
| 20260905234508 | 33 | 286 | 3.2 | 14.5 | 0.00 | 0.00 | 0.00 | 21 | 1017.6 |
| 20260905234113 | 32 | 310 | 3.2 | 12.9 | 0.00 | 0.00 | 0.00 | 21 | 1019.1 |
| 20260905233613 | 32 | 294 | 3.2 | 12.9 | 0.00 | 0.00 | 0.00 | 22 | 1019.1 |
| 20260905233113 | 31 | 264 | 4.8 | 16.1 | 0.00 | 0.00 | 0.00 | 23 | 1019.0 |
| 20260905233012 | 32 | 290 | 3.2 | 12.9 | 0.00 | 0.00 | 0.00 | 22 | 1017.5 |
| 20260905232613 | 31 | 254 | 4.8 | 16.1 | 0.00 | 0.00 | 0.00 | 21 | 1019.0 |
| 20260905232344 | 32 | 302 | 6.4 | 16.1 | 0.00 | 0.00 | 0.00 | 21 | 1019.0 |
| 20260905231613 | 32 | 273 | 3.2 | 16.1 | 0.00 | 0.00 | 0.00 | 21 | 1019.0 |
| 20260905231509 | 33 | 265 | 6.4 | 16.1 | 0.00 | 0.00 | 0.00 | 20 | 1017.3 |
| 20260905231112 | 32 | 276 | 1.6 | 11.3 | 0.00 | 0.00 | 0.00 | 20 | 1018.8 |
| 20260905230613 | 32 | 333 | 1.6 | 6.4 | 0.00 | 0.00 | 0.00 | 20 | 1018.9 |
| 20260905230113 | 32 | 335 | 1.6 | 6.4 | 0.00 | 0.00 | 0.00 | 20 | 1018.8 |
| 20260905230015 | 33 | 333 | 0.0 | 6.4 | 0.00 | 0.00 | 0.00 | 19 | 1017.3 |
| 20260905225613 | 32 | 182 | 0.0 | 1.6 | 0.00 | 0.00 | 0.00 | 19 | 1018.8 |
| 20260905225112 | 32 | 183 | 0.0 | 12.9 | 0.00 | 0.00 | 0.00 | 20 | 1018.7 |
| 20260905224613 | 32 | 183 | 1.6 | 12.9 | 0.00 | 0.00 | 0.00 | 20 | 1018.8 |
| 20260905224529 | 33 | 136 | 0.0 | 8.0 | 0.00 | 0.00 | 0.00 | 19 | 1017.2 |
| 20260905224113 | 32 | 134 | 4.8 | 12.9 | 0.00 | 0.00 | 0.00 | 19 | 1018.8 |
| 20260905223613 | 32 | 153 | 4.8 | 12.9 | 0.00 | 0.00 | 0.00 | 19 | 1018.8 |
| 20260905223110 | 32 | 138 | 3.2 | 12.9 | 0.00 | 0.00 | 0.00 | 19 | 1018.8 |
| 20260905223024 | 33 | 136 | 4.8 | 9.7 | 0.00 | 0.00 | 0.00 | 18 | 1017.2 |
| 20260905222609 | 32 | 161 | 1.6 | 12.9 | 0.00 | 0.00 | 0.00 | 19 | 1018.8 |
| 20260905222339 | 32 | 44 | 3.2 | 12.9 | 0.00 | 0.00 | 0.00 | 19 | 1018.7 |
| 20260905221608 | 32 | 137 | 6.4 | 12.9 | 0.00 | 0.00 | 0.00 | 19 | 1018.7 |
| 20260905221515 | 33 | 137 | 4.8 | 12.9 | 0.00 | 0.00 | 0.00 | 18 | 1017.2 |
| 20260905221339 | 32 | 148 | 6.4 | 12.9 | 0.00 | 0.00 | 0.00 | 19 | 1018.7 |
| 20260905220839 | 33 | 174 | 4.8 | 12.9 | 0.00 | 0.00 | 0.00 | 19 | 1018.8 |